sensor_id;sensor_type;location;lat;lon;timestamp;temperature;humidity
21403;DHT22;10862;51.886;17.078;2023-03-01T00:03:28;-3.00;99.90
21403;DHT22;10862;51.886;17.078;2023-03-01T00:05:54;-3.10;99.90
21403;DHT22;10862;51.886;17.078;2023-03-01T00:08:19;-3.20;99.90
21403;DHT22;10862;51.886;17.078;2023-03-01T00:10:45;-3.20;99.90
21403;DHT22;10862;51.886;17.078;2023-03-01T00:13:11;-3.10;99.90
21403;DHT22;10862;51.886;17.078;2023-03-01T00:15:40;-3.00;99.90
21403;DHT22;10862;51.886;17.078;2023-03-01T00:18:07;-3.10;99.90
21403;DHT22;10862;51.886;17.078;2023-03-01T00:20:34;-3.10;99.90
21403;DHT22;10862;51.886;17.078;2023-03-01T00:23:00;-3.10;99.90
21403;DHT22;10862;51.886;17.078;2023-03-01T00:25:25;-3.10;99.90
21403;DHT22;10862;51.886;17.078;2023-03-01T00:27:51;-2.90;99.90
21403;DHT22;10862;51.886;17.078;2023-03-01T00:30:17;-3.00;99.90
21403;DHT22;10862;51.886;17.078;2023-03-01T00:32:42;-3.00;99.90
21403;DHT22;10862;51.886;17.078;2023-03-01T00:35:08;-3.10;99.90
21403;DHT22;10862;51.886;17.078;2023-03-01T00:37:34;-3.10;99.90
21403;DHT22;10862;51.886;17.078;2023-03-01T00:39:59;-3.20;99.90
21403;DHT22;10862;51.886;17.078;2023-03-01T00:42:25;-3.30;99.90
21403;DHT22;10862;51.886;17.078;2023-03-01T00:44:51;-3.30;99.90
21403;DHT22;10862;51.886;17.078;2023-03-01T00:47:16;-3.20;99.90
21403;DHT22;10862;51.886;17.078;2023-03-01T00:49:42;-3.20;99.90
21403;DHT22;10862;51.886;17.078;2023-03-01T00:52:08;-3.10;99.90
21403;DHT22;10862;51.886;17.078;2023-03-01T00:54:33;-3.10;99.90
21403;DHT22;10862;51.886;17.078;2023-03-01T00:56:59;-3.10;99.90
21403;DHT22;10862;51.886;17.078;2023-03-01T00:59:25;-3.20;99.90
21403;DHT22;10862;51.886;17.078;2023-03-01T01:01:50;-3.40;99.90
21403;DHT22;10862;51.886;17.078;2023-03-01T01:04:16;-3.50;99.90
21403;DHT22;10862;51.886;17.078;2023-03-01T01:06:44;-3.50;99.90
21403;DHT22;10862;51.886;17.078;2023-03-01T01:09:12;-3.40;99.90
21403;DHT22;10862;51.886;17.078;2023-03-01T01:11:43;-3.50;99.90
21403;DHT22;10862;51.886;17.078;2023-03-01T01:14:09;-3.60;99.90
21403;DHT22;10862;51.886;17.078;2023-03-01T01:16:35;-3.60;99.90
21403;DHT22;10862;51.886;17.078;2023-03-01T01:19:01;-3.60;99.90
21403;DHT22;10862;51.886;17.078;2023-03-01T01:21:27;-3.60;99.90
21403;DHT22;10862;51.886;17.078;2023-03-01T01:23:54;-3.70;99.90
21403;DHT22;10862;51.886;17.078;2023-03-01T01:26:23;-3.70;99.90
21403;DHT22;10862;51.886;17.078;2023-03-01T01:28:50;-3.70;99.90
21403;DHT22;10862;51.886;17.078;2023-03-01T01:31:16;-3.60;99.90
21403;DHT22;10862;51.886;17.078;2023-03-01T01:33:42;-3.60;99.90
21403;DHT22;10862;51.886;17.078;2023-03-01T01:36:08;-3.60;99.90
21403;DHT22;10862;51.886;17.078;2023-03-01T01:38:35;-3.70;99.90
21403;DHT22;10862;51.886;17.078;2023-03-01T01:41:02;-3.70;99.90
21403;DHT22;10862;51.886;17.078;2023-03-01T01:46:32;-3.70;99.90
21403;DHT22;10862;51.886;17.078;2023-03-01T01:49:07;-3.70;99.90
21403;DHT22;10862;51.886;17.078;2023-03-01T01:51:39;-3.80;99.90
21403;DHT22;10862;51.886;17.078;2023-03-01T01:54:20;-3.90;99.90
21403;DHT22;10862;51.886;17.078;2023-03-01T01:56:55;-4.00;99.90
21403;DHT22;10862;51.886;17.078;2023-03-01T01:59:24;-4.00;99.90
21403;DHT22;10862;51.886;17.078;2023-03-01T02:01:53;-3.90;99.90
21403;DHT22;10862;51.886;17.078;2023-03-01T02:04:20;-3.90;99.90
21403;DHT22;10862;51.886;17.078;2023-03-01T02:07:08;-3.90;99.90
21403;DHT22;10862;51.886;17.078;2023-03-01T02:09:36;-4.00;99.90
21403;DHT22;10862;51.886;17.078;2023-03-01T02:12:03;-4.00;99.90
21403;DHT22;10862;51.886;17.078;2023-03-01T02:14:29;-4.00;99.90
21403;DHT22;10862;51.886;17.078;2023-03-01T02:16:55;-3.80;99.90
21403;DHT22;10862;51.886;17.078;2023-03-01T02:19:33;-3.70;99.90
21403;DHT22;10862;51.886;17.078;2023-03-01T02:27:46;-3.70;99.90
21403;DHT22;10862;51.886;17.078;2023-03-01T02:30:14;-3.60;99.90
21403;DHT22;10862;51.886;17.078;2023-03-01T02:32:40;-3.60;99.90
21403;DHT22;10862;51.886;17.078;2023-03-01T02:35:10;-3.60;99.90
21403;DHT22;10862;51.886;17.078;2023-03-01T02:37:38;-3.60;99.90
21403;DHT22;10862;51.886;17.078;2023-03-01T02:40:09;-3.60;99.90
21403;DHT22;10862;51.886;17.078;2023-03-01T02:42:51;-3.60;99.90
21403;DHT22;10862;51.886;17.078;2023-03-01T02:45:17;-3.70;99.90
21403;DHT22;10862;51.886;17.078;2023-03-01T02:47:43;-3.70;99.90
21403;DHT22;10862;51.886;17.078;2023-03-01T02:53:04;-3.60;99.90
21403;DHT22;10862;51.886;17.078;2023-03-01T02:55:33;-3.70;99.90
21403;DHT22;10862;51.886;17.078;2023-03-01T02:58:02;-3.90;99.90
21403;DHT22;10862;51.886;17.078;2023-03-01T03:00:38;-3.90;99.90
21403;DHT22;10862;51.886;17.078;2023-03-01T03:03:09;-3.80;99.90
21403;DHT22;10862;51.886;17.078;2023-03-01T03:05:35;-3.70;99.90
21403;DHT22;10862;51.886;17.078;2023-03-01T03:08:03;-3.70;99.90
21403;DHT22;10862;51.886;17.078;2023-03-01T03:10:32;-3.60;99.90
21403;DHT22;10862;51.886;17.078;2023-03-01T03:13:03;-3.70;99.90
21403;DHT22;10862;51.886;17.078;2023-03-01T03:15:29;-3.70;99.90
21403;DHT22;10862;51.886;17.078;2023-03-01T03:17:58;-3.80;99.90
21403;DHT22;10862;51.886;17.078;2023-03-01T03:20:26;-4.00;99.90
21403;DHT22;10862;51.886;17.078;2023-03-01T03:22:54;-4.00;99.90
21403;DHT22;10862;51.886;17.078;2023-03-01T03:25:21;-3.90;99.90
21403;DHT22;10862;51.886;17.078;2023-03-01T03:27:49;-3.80;99.90
21403;DHT22;10862;51.886;17.078;2023-03-01T03:30:17;-3.80;99.90
21403;DHT22;10862;51.886;17.078;2023-03-01T03:32:45;-3.70;99.90
21403;DHT22;10862;51.886;17.078;2023-03-01T03:35:25;-3.70;99.90
21403;DHT22;10862;51.886;17.078;2023-03-01T03:37:51;-3.80;99.90
21403;DHT22;10862;51.886;17.078;2023-03-01T03:40:33;-3.80;99.90
21403;DHT22;10862;51.886;17.078;2023-03-01T03:42:59;-3.90;99.90
21403;DHT22;10862;51.886;17.078;2023-03-01T03:45:25;-3.90;99.90
21403;DHT22;10862;51.886;17.078;2023-03-01T03:47:50;-3.90;99.90
21403;DHT22;10862;51.886;17.078;2023-03-01T03:50:17;-3.90;99.90
21403;DHT22;10862;51.886;17.078;2023-03-01T03:52:44;-3.80;99.90
21403;DHT22;10862;51.886;17.078;2023-03-01T03:55:11;-3.90;99.90
21403;DHT22;10862;51.886;17.078;2023-03-01T03:57:41;-3.90;99.90
21403;DHT22;10862;51.886;17.078;2023-03-01T04:00:09;-4.00;99.90
21403;DHT22;10862;51.886;17.078;2023-03-01T04:02:41;-4.00;99.90
21403;DHT22;10862;51.886;17.078;2023-03-01T04:05:09;-4.10;99.90
21403;DHT22;10862;51.886;17.078;2023-03-01T04:07:36;-4.20;99.90
21403;DHT22;10862;51.886;17.078;2023-03-01T04:10:06;-4.10;99.90
21403;DHT22;10862;51.886;17.078;2023-03-01T04:12:33;-4.20;99.90
21403;DHT22;10862;51.886;17.078;2023-03-01T04:15:00;-4.20;99.90
21403;DHT22;10862;51.886;17.078;2023-03-01T04:17:26;-4.30;99.90
21403;DHT22;10862;51.886;17.078;2023-03-01T04:19:52;-4.40;99.90
21403;DHT22;10862;51.886;17.078;2023-03-01T04:22:18;-4.40;99.90
21403;DHT22;10862;51.886;17.078;2023-03-01T04:24:45;-4.50;99.90
21403;DHT22;10862;51.886;17.078;2023-03-01T04:27:11;-4.60;99.90
21403;DHT22;10862;51.886;17.078;2023-03-01T04:29:36;-4.50;99.90
21403;DHT22;10862;51.886;17.078;2023-03-01T04:32:02;-4.60;99.90
21403;DHT22;10862;51.886;17.078;2023-03-01T04:34:29;-4.60;99.90
21403;DHT22;10862;51.886;17.078;2023-03-01T04:36:55;-4.60;99.90
21403;DHT22;10862;51.886;17.078;2023-03-01T04:39:21;-4.40;99.90
21403;DHT22;10862;51.886;17.078;2023-03-01T04:41:47;-4.30;99.90
21403;DHT22;10862;51.886;17.078;2023-03-01T04:44:13;-4.30;99.90
21403;DHT22;10862;51.886;17.078;2023-03-01T04:46:39;-4.30;99.90
21403;DHT22;10862;51.886;17.078;2023-03-01T04:49:04;-4.30;99.90
21403;DHT22;10862;51.886;17.078;2023-03-01T04:51:30;-4.30;99.90
21403;DHT22;10862;51.886;17.078;2023-03-01T04:53:58;-4.30;99.90
21403;DHT22;10862;51.886;17.078;2023-03-01T04:56:23;-4.30;99.90
21403;DHT22;10862;51.886;17.078;2023-03-01T04:58:49;-4.20;99.90
21403;DHT22;10862;51.886;17.078;2023-03-01T05:01:20;-4.20;99.90
21403;DHT22;10862;51.886;17.078;2023-03-01T05:03:50;-4.20;99.90
21403;DHT22;10862;51.886;17.078;2023-03-01T05:06:18;-4.30;99.90
21403;DHT22;10862;51.886;17.078;2023-03-01T05:08:44;-4.30;99.90
21403;DHT22;10862;51.886;17.078;2023-03-01T05:11:11;-4.30;99.90
21403;DHT22;10862;51.886;17.078;2023-03-01T05:13:38;-4.40;99.90
21403;DHT22;10862;51.886;17.078;2023-03-01T05:16:04;-4.40;99.90
21403;DHT22;10862;51.886;17.078;2023-03-01T05:18:32;-4.40;99.90
21403;DHT22;10862;51.886;17.078;2023-03-01T05:21:09;-4.40;99.90
21403;DHT22;10862;51.886;17.078;2023-03-01T05:23:35;-4.30;99.90
21403;DHT22;10862;51.886;17.078;2023-03-01T05:26:03;-4.40;99.90
21403;DHT22;10862;51.886;17.078;2023-03-01T05:28:30;-4.30;99.90
21403;DHT22;10862;51.886;17.078;2023-03-01T05:30:56;-4.30;99.90
21403;DHT22;10862;51.886;17.078;2023-03-01T05:33:23;-4.40;99.90
21403;DHT22;10862;51.886;17.078;2023-03-01T05:35:50;-4.60;99.90
21403;DHT22;10862;51.886;17.078;2023-03-01T05:38:16;-4.70;99.90
21403;DHT22;10862;51.886;17.078;2023-03-01T05:40:44;-4.60;99.90
21403;DHT22;10862;51.886;17.078;2023-03-01T05:43:11;-4.60;99.90
21403;DHT22;10862;51.886;17.078;2023-03-01T05:45:38;-4.60;99.90
21403;DHT22;10862;51.886;17.078;2023-03-01T05:48:05;-4.50;99.90
21403;DHT22;10862;51.886;17.078;2023-03-01T05:50:38;-4.30;99.90
21403;DHT22;10862;51.886;17.078;2023-03-01T05:53:16;-4.30;99.90
21403;DHT22;10862;51.886;17.078;2023-03-01T05:55:42;-4.30;99.90
21403;DHT22;10862;51.886;17.078;2023-03-01T05:58:14;-4.30;99.90
21403;DHT22;10862;51.886;17.078;2023-03-01T06:00:40;-4.40;99.90
21403;DHT22;10862;51.886;17.078;2023-03-01T06:03:06;-4.30;99.90
21403;DHT22;10862;51.886;17.078;2023-03-01T06:05:32;-4.30;99.90
21403;DHT22;10862;51.886;17.078;2023-03-01T06:08:01;-4.50;99.90
21403;DHT22;10862;51.886;17.078;2023-03-01T06:10:27;-4.60;99.90
21403;DHT22;10862;51.886;17.078;2023-03-01T06:12:54;-4.60;99.90
21403;DHT22;10862;51.886;17.078;2023-03-01T06:15:19;-4.60;99.90
21403;DHT22;10862;51.886;17.078;2023-03-01T06:17:46;-4.40;99.90
21403;DHT22;10862;51.886;17.078;2023-03-01T06:20:20;-4.30;99.90
21403;DHT22;10862;51.886;17.078;2023-03-01T06:22:46;-4.10;99.90
21403;DHT22;10862;51.886;17.078;2023-03-01T06:25:14;-3.90;99.90
21403;DHT22;10862;51.886;17.078;2023-03-01T06:27:41;-3.80;99.90
21403;DHT22;10862;51.886;17.078;2023-03-01T06:30:08;-3.70;99.90
21403;DHT22;10862;51.886;17.078;2023-03-01T06:32:36;-3.60;99.90
21403;DHT22;10862;51.886;17.078;2023-03-01T06:35:03;-3.60;99.90
21403;DHT22;10862;51.886;17.078;2023-03-01T06:37:29;-3.50;99.90
21403;DHT22;10862;51.886;17.078;2023-03-01T06:39:55;-3.40;99.90
21403;DHT22;10862;51.886;17.078;2023-03-01T06:42:20;-3.40;99.90
21403;DHT22;10862;51.886;17.078;2023-03-01T06:44:46;-3.40;99.90
21403;DHT22;10862;51.886;17.078;2023-03-01T06:47:12;-3.30;99.90
21403;DHT22;10862;51.886;17.078;2023-03-01T06:49:38;-3.20;99.90
21403;DHT22;10862;51.886;17.078;2023-03-01T06:52:04;-3.10;99.90
21403;DHT22;10862;51.886;17.078;2023-03-01T06:54:29;-3.10;99.90
21403;DHT22;10862;51.886;17.078;2023-03-01T06:56:55;-3.00;99.90
21403;DHT22;10862;51.886;17.078;2023-03-01T06:59:21;-3.00;99.90
21403;DHT22;10862;51.886;17.078;2023-03-01T07:01:46;-2.90;99.90
21403;DHT22;10862;51.886;17.078;2023-03-01T07:04:13;-2.80;99.90
21403;DHT22;10862;51.886;17.078;2023-03-01T07:06:39;-2.70;99.90
21403;DHT22;10862;51.886;17.078;2023-03-01T07:09:05;-2.70;99.90
21403;DHT22;10862;51.886;17.078;2023-03-01T07:11:30;-2.60;99.90
21403;DHT22;10862;51.886;17.078;2023-03-01T07:13:56;-2.50;99.90
21403;DHT22;10862;51.886;17.078;2023-03-01T07:16:23;-2.40;99.90
21403;DHT22;10862;51.886;17.078;2023-03-01T07:18:49;-2.30;99.90
21403;DHT22;10862;51.886;17.078;2023-03-01T07:21:15;-2.20;99.90
21403;DHT22;10862;51.886;17.078;2023-03-01T07:23:41;-2.10;99.90
21403;DHT22;10862;51.886;17.078;2023-03-01T07:26:07;-1.90;99.90
21403;DHT22;10862;51.886;17.078;2023-03-01T07:28:33;-1.90;99.90
21403;DHT22;10862;51.886;17.078;2023-03-01T07:31:07;-1.70;99.90
21403;DHT22;10862;51.886;17.078;2023-03-01T07:33:33;-1.60;99.90
21403;DHT22;10862;51.886;17.078;2023-03-01T07:36:00;-1.50;99.90
21403;DHT22;10862;51.886;17.078;2023-03-01T07:38:27;-1.50;99.90
21403;DHT22;10862;51.886;17.078;2023-03-01T07:40:53;-1.40;99.90
21403;DHT22;10862;51.886;17.078;2023-03-01T07:43:19;-1.30;99.90
21403;DHT22;10862;51.886;17.078;2023-03-01T07:45:46;-1.20;99.90
21403;DHT22;10862;51.886;17.078;2023-03-01T07:48:12;-1.10;99.90
21403;DHT22;10862;51.886;17.078;2023-03-01T07:50:37;-0.90;99.90
21403;DHT22;10862;51.886;17.078;2023-03-01T07:53:03;-0.80;99.90
21403;DHT22;10862;51.886;17.078;2023-03-01T07:55:30;-0.70;99.90
21403;DHT22;10862;51.886;17.078;2023-03-01T07:57:55;-0.60;99.90
21403;DHT22;10862;51.886;17.078;2023-03-01T08:00:21;-0.40;99.90
21403;DHT22;10862;51.886;17.078;2023-03-01T08:02:47;-0.40;99.90
21403;DHT22;10862;51.886;17.078;2023-03-01T08:05:13;-0.30;99.90
21403;DHT22;10862;51.886;17.078;2023-03-01T08:07:38;-0.30;99.90
21403;DHT22;10862;51.886;17.078;2023-03-01T08:10:04;-0.20;99.90
21403;DHT22;10862;51.886;17.078;2023-03-01T08:12:30;-0.10;99.90
21403;DHT22;10862;51.886;17.078;2023-03-01T08:14:56;-0.10;99.90
21403;DHT22;10862;51.886;17.078;2023-03-01T08:17:22;0.10;99.90
21403;DHT22;10862;51.886;17.078;2023-03-01T08:19:48;0.30;99.90
21403;DHT22;10862;51.886;17.078;2023-03-01T08:22:13;0.40;99.90
21403;DHT22;10862;51.886;17.078;2023-03-01T08:24:39;0.50;99.90
21403;DHT22;10862;51.886;17.078;2023-03-01T08:27:05;0.60;99.90
21403;DHT22;10862;51.886;17.078;2023-03-01T08:29:32;0.60;99.90
21403;DHT22;10862;51.886;17.078;2023-03-01T08:31:58;0.60;99.90
21403;DHT22;10862;51.886;17.078;2023-03-01T08:34:23;0.80;99.90
21403;DHT22;10862;51.886;17.078;2023-03-01T08:36:49;1.10;99.90
21403;DHT22;10862;51.886;17.078;2023-03-01T08:39:18;1.30;99.90
21403;DHT22;10862;51.886;17.078;2023-03-01T08:41:45;1.30;99.90
21403;DHT22;10862;51.886;17.078;2023-03-01T08:44:12;1.40;99.90
21403;DHT22;10862;51.886;17.078;2023-03-01T08:46:41;1.30;99.90
21403;DHT22;10862;51.886;17.078;2023-03-01T08:49:17;1.30;99.90
21403;DHT22;10862;51.886;17.078;2023-03-01T08:51:44;1.20;99.90
21403;DHT22;10862;51.886;17.078;2023-03-01T08:54:12;1.20;99.90
21403;DHT22;10862;51.886;17.078;2023-03-01T08:56:38;1.40;99.90
21403;DHT22;10862;51.886;17.078;2023-03-01T08:59:04;1.80;99.90
21403;DHT22;10862;51.886;17.078;2023-03-01T09:01:30;2.10;99.90
21403;DHT22;10862;51.886;17.078;2023-03-01T09:03:56;2.30;99.90
21403;DHT22;10862;51.886;17.078;2023-03-01T09:06:21;2.30;99.10
21403;DHT22;10862;51.886;17.078;2023-03-01T09:08:49;2.30;64.70
21403;DHT22;10862;51.886;17.078;2023-03-01T09:11:18;1.90;25.00
21403;DHT22;10862;51.886;17.078;2023-03-01T09:13:45;2.20;18.10
21403;DHT22;10862;51.886;17.078;2023-03-01T09:16:13;2.30;1.00
21403;DHT22;10862;51.886;17.078;2023-03-01T09:18:39;2.60;1.00
21403;DHT22;10862;51.886;17.078;2023-03-01T09:21:13;3.30;1.00
21403;DHT22;10862;51.886;17.078;2023-03-01T09:23:41;5.20;1.00
21403;DHT22;10862;51.886;17.078;2023-03-01T09:26:16;5.90;1.00
21403;DHT22;10862;51.886;17.078;2023-03-01T09:28:45;7.40;1.00
21403;DHT22;10862;51.886;17.078;2023-03-01T09:31:11;8.90;1.00
21403;DHT22;10862;51.886;17.078;2023-03-01T09:33:41;7.40;1.00
21403;DHT22;10862;51.886;17.078;2023-03-01T09:36:11;8.30;1.00
21403;DHT22;10862;51.886;17.078;2023-03-01T09:38:37;9.10;1.00
21403;DHT22;10862;51.886;17.078;2023-03-01T09:43:50;9.90;1.00
21403;DHT22;10862;51.886;17.078;2023-03-01T09:46:23;11.10;1.00
21403;DHT22;10862;51.886;17.078;2023-03-01T09:48:56;10.10;1.00
21403;DHT22;10862;51.886;17.078;2023-03-01T09:51:26;10.50;1.00
21403;DHT22;10862;51.886;17.078;2023-03-01T09:53:54;10.40;1.00
21403;DHT22;10862;51.886;17.078;2023-03-01T09:56:41;12.20;1.00
21403;DHT22;10862;51.886;17.078;2023-03-01T10:02:26;12.40;1.00
21403;DHT22;10862;51.886;17.078;2023-03-01T10:05:10;11.70;1.00
21403;DHT22;10862;51.886;17.078;2023-03-01T10:08:13;12.80;1.00
21403;DHT22;10862;51.886;17.078;2023-03-01T10:10:45;13.00;1.00
21403;DHT22;10862;51.886;17.078;2023-03-01T10:13:19;12.10;1.00
21403;DHT22;10862;51.886;17.078;2023-03-01T10:16:10;11.60;1.00
21403;DHT22;10862;51.886;17.078;2023-03-01T10:18:37;11.40;1.00
21403;DHT22;10862;51.886;17.078;2023-03-01T10:21:18;8.70;1.00
21403;DHT22;10862;51.886;17.078;2023-03-01T10:23:44;10.80;1.00
21403;DHT22;10862;51.886;17.078;2023-03-01T10:31:19;9.00;1.00
21403;DHT22;10862;51.886;17.078;2023-03-01T10:33:47;9.50;1.00
21403;DHT22;10862;51.886;17.078;2023-03-01T10:36:16;9.00;1.00
21403;DHT22;10862;51.886;17.078;2023-03-01T10:38:54;7.50;1.00
21403;DHT22;10862;51.886;17.078;2023-03-01T10:41:22;7.10;1.00
21403;DHT22;10862;51.886;17.078;2023-03-01T10:43:49;6.60;1.00
21403;DHT22;10862;51.886;17.078;2023-03-01T10:46:45;6.40;1.00
21403;DHT22;10862;51.886;17.078;2023-03-01T10:49:22;7.00;1.00
21403;DHT22;10862;51.886;17.078;2023-03-01T10:51:50;7.30;1.00
21403;DHT22;10862;51.886;17.078;2023-03-01T10:54:25;6.20;1.00
21403;DHT22;10862;51.886;17.078;2023-03-01T10:57:04;6.40;1.00
21403;DHT22;10862;51.886;17.078;2023-03-01T10:59:33;6.00;1.00
21403;DHT22;10862;51.886;17.078;2023-03-01T11:02:22;6.50;1.00
21403;DHT22;10862;51.886;17.078;2023-03-01T11:07:58;6.50;1.00
21403;DHT22;10862;51.886;17.078;2023-03-01T11:13:18;7.10;1.00
21403;DHT22;10862;51.886;17.078;2023-03-01T11:16:00;5.90;1.00
21403;DHT22;10862;51.886;17.078;2023-03-01T11:18:26;5.00;1.00
21403;DHT22;10862;51.886;17.078;2023-03-01T11:20:53;5.00;1.00
21403;DHT22;10862;51.886;17.078;2023-03-01T11:23:20;5.40;1.00
21403;DHT22;10862;51.886;17.078;2023-03-01T11:26:05;5.40;1.00
21403;DHT22;10862;51.886;17.078;2023-03-01T11:28:33;5.40;1.00
21403;DHT22;10862;51.886;17.078;2023-03-01T11:31:10;5.00;1.00
21403;DHT22;10862;51.886;17.078;2023-03-01T11:36:41;5.40;1.00
21403;DHT22;10862;51.886;17.078;2023-03-01T11:39:40;5.40;1.00
21403;DHT22;10862;51.886;17.078;2023-03-01T11:42:17;4.90;1.00
21403;DHT22;10862;51.886;17.078;2023-03-01T11:44:46;4.90;1.00
21403;DHT22;10862;51.886;17.078;2023-03-01T11:58:14;5.80;1.00
21403;DHT22;10862;51.886;17.078;2023-03-01T12:28:24;5.20;1.00
21403;DHT22;10862;51.886;17.078;2023-03-01T12:31:27;5.30;1.00
21403;DHT22;10862;51.886;17.078;2023-03-01T12:34:01;5.60;1.00
21403;DHT22;10862;51.886;17.078;2023-03-01T12:36:45;5.70;1.00
21403;DHT22;10862;51.886;17.078;2023-03-01T12:39:44;5.20;1.00
21403;DHT22;10862;51.886;17.078;2023-03-01T12:50:43;5.50;1.00
21403;DHT22;10862;51.886;17.078;2023-03-01T12:53:29;5.60;1.00
21403;DHT22;10862;51.886;17.078;2023-03-01T12:56:10;5.80;1.00
21403;DHT22;10862;51.886;17.078;2023-03-01T13:01:39;5.70;1.00
21403;DHT22;10862;51.886;17.078;2023-03-01T13:10:16;5.30;1.00
21403;DHT22;10862;51.886;17.078;2023-03-01T13:33:47;5.50;1.00
21403;DHT22;10862;51.886;17.078;2023-03-01T13:36:49;5.70;1.00
21403;DHT22;10862;51.886;17.078;2023-03-01T13:39:30;5.80;1.00
21403;DHT22;10862;51.886;17.078;2023-03-01T13:41:58;5.90;1.00
21403;DHT22;10862;51.886;17.078;2023-03-01T13:44:36;5.70;1.00
21403;DHT22;10862;51.886;17.078;2023-03-01T13:49:58;5.90;1.00
21403;DHT22;10862;51.886;17.078;2023-03-01T13:55:03;6.10;1.00
21403;DHT22;10862;51.886;17.078;2023-03-01T13:57:37;6.20;1.00
21403;DHT22;10862;51.886;17.078;2023-03-01T14:00:07;6.00;1.00
21403;DHT22;10862;51.886;17.078;2023-03-01T14:03:20;6.00;1.00
21403;DHT22;10862;51.886;17.078;2023-03-01T14:06:07;5.90;1.00
21403;DHT22;10862;51.886;17.078;2023-03-01T14:08:35;6.20;1.00
21403;DHT22;10862;51.886;17.078;2023-03-01T14:19:40;6.10;1.00
21403;DHT22;10862;51.886;17.078;2023-03-01T14:24:54;6.70;1.00
21403;DHT22;10862;51.886;17.078;2023-03-01T14:27:21;6.50;1.00
21403;DHT22;10862;51.886;17.078;2023-03-01T14:30:09;6.40;1.00
21403;DHT22;10862;51.886;17.078;2023-03-01T14:32:38;6.40;1.00
21403;DHT22;10862;51.886;17.078;2023-03-01T14:35:23;6.80;1.00
21403;DHT22;10862;51.886;17.078;2023-03-01T14:37:49;6.90;1.00
21403;DHT22;10862;51.886;17.078;2023-03-01T14:40:30;6.70;1.00
21403;DHT22;10862;51.886;17.078;2023-03-01T14:42:58;6.70;1.00
21403;DHT22;10862;51.886;17.078;2023-03-01T14:45:26;6.40;1.00
21403;DHT22;10862;51.886;17.078;2023-03-01T14:47:53;6.30;1.00
21403;DHT22;10862;51.886;17.078;2023-03-01T14:50:29;6.40;1.00
21403;DHT22;10862;51.886;17.078;2023-03-01T14:53:01;6.30;1.00
21403;DHT22;10862;51.886;17.078;2023-03-01T14:55:37;6.30;1.00
21403;DHT22;10862;51.886;17.078;2023-03-01T14:58:12;6.60;1.00
21403;DHT22;10862;51.886;17.078;2023-03-01T15:00:38;6.80;1.00
21403;DHT22;10862;51.886;17.078;2023-03-01T15:03:11;6.70;1.00
21403;DHT22;10862;51.886;17.078;2023-03-01T15:05:39;6.50;1.00
21403;DHT22;10862;51.886;17.078;2023-03-01T15:08:06;6.50;1.00
21403;DHT22;10862;51.886;17.078;2023-03-01T15:10:35;6.30;1.00
21403;DHT22;10862;51.886;17.078;2023-03-01T15:13:22;6.60;1.00
21403;DHT22;10862;51.886;17.078;2023-03-01T15:15:50;6.30;1.00
21403;DHT22;10862;51.886;17.078;2023-03-01T15:20:46;6.20;1.00
21403;DHT22;10862;51.886;17.078;2023-03-01T15:23:29;6.40;1.00
21403;DHT22;10862;51.886;17.078;2023-03-01T15:25:56;6.60;1.00
21403;DHT22;10862;51.886;17.078;2023-03-01T15:28:29;6.50;1.00
21403;DHT22;10862;51.886;17.078;2023-03-01T15:31:06;6.40;1.00
21403;DHT22;10862;51.886;17.078;2023-03-01T15:33:38;6.30;1.00
21403;DHT22;10862;51.886;17.078;2023-03-01T15:38:59;6.20;1.00
21403;DHT22;10862;51.886;17.078;2023-03-01T15:41:46;6.10;1.00
21403;DHT22;10862;51.886;17.078;2023-03-01T15:44:29;6.20;1.00
21403;DHT22;10862;51.886;17.078;2023-03-01T15:46:56;6.00;1.00
21403;DHT22;10862;51.886;17.078;2023-03-01T15:49:42;6.10;1.00
21403;DHT22;10862;51.886;17.078;2023-03-01T15:52:25;6.00;1.00
21403;DHT22;10862;51.886;17.078;2023-03-01T15:54:59;5.90;1.00
21403;DHT22;10862;51.886;17.078;2023-03-01T15:57:26;5.80;1.00
21403;DHT22;10862;51.886;17.078;2023-03-01T15:59:51;5.70;1.00
21403;DHT22;10862;51.886;17.078;2023-03-01T16:02:17;5.60;1.00
21403;DHT22;10862;51.886;17.078;2023-03-01T16:04:46;5.50;1.00
21403;DHT22;10862;51.886;17.078;2023-03-01T16:07:12;5.50;1.00
21403;DHT22;10862;51.886;17.078;2023-03-01T16:09:37;5.40;1.00
21403;DHT22;10862;51.886;17.078;2023-03-01T16:12:03;5.40;1.00
21403;DHT22;10862;51.886;17.078;2023-03-01T16:14:29;5.30;1.00
21403;DHT22;10862;51.886;17.078;2023-03-01T16:16:55;5.20;1.00
21403;DHT22;10862;51.886;17.078;2023-03-01T16:19:20;5.10;1.00
21403;DHT22;10862;51.886;17.078;2023-03-01T16:21:46;5.00;1.00
21403;DHT22;10862;51.886;17.078;2023-03-01T16:24:14;5.00;1.00
21403;DHT22;10862;51.886;17.078;2023-03-01T16:26:40;4.90;1.00
21403;DHT22;10862;51.886;17.078;2023-03-01T16:29:06;4.80;1.00
21403;DHT22;10862;51.886;17.078;2023-03-01T16:31:32;4.80;1.00
21403;DHT22;10862;51.886;17.078;2023-03-01T16:33:59;4.70;1.00
21403;DHT22;10862;51.886;17.078;2023-03-01T16:36:26;4.70;1.00
21403;DHT22;10862;51.886;17.078;2023-03-01T16:38:58;4.60;1.00
21403;DHT22;10862;51.886;17.078;2023-03-01T16:41:23;4.50;1.00
21403;DHT22;10862;51.886;17.078;2023-03-01T16:43:49;4.50;1.00
21403;DHT22;10862;51.886;17.078;2023-03-01T16:46:21;4.50;1.00
21403;DHT22;10862;51.886;17.078;2023-03-01T16:48:48;4.50;1.00
21403;DHT22;10862;51.886;17.078;2023-03-01T16:51:14;4.20;1.00
21403;DHT22;10862;51.886;17.078;2023-03-01T16:53:40;4.10;1.00
21403;DHT22;10862;51.886;17.078;2023-03-01T16:56:08;4.10;1.00
21403;DHT22;10862;51.886;17.078;2023-03-01T16:58:36;4.00;1.00
21403;DHT22;10862;51.886;17.078;2023-03-01T17:01:10;4.00;1.00
21403;DHT22;10862;51.886;17.078;2023-03-01T17:03:37;3.90;1.00
21403;DHT22;10862;51.886;17.078;2023-03-01T17:06:12;3.70;1.00
21403;DHT22;10862;51.886;17.078;2023-03-01T17:08:38;3.70;1.00
21403;DHT22;10862;51.886;17.078;2023-03-01T17:11:13;3.60;1.00
21403;DHT22;10862;51.886;17.078;2023-03-01T17:13:40;3.50;1.00
21403;DHT22;10862;51.886;17.078;2023-03-01T17:16:07;3.40;1.00
21403;DHT22;10862;51.886;17.078;2023-03-01T17:18:34;3.30;1.00
21403;DHT22;10862;51.886;17.078;2023-03-01T17:21:00;3.40;1.00
21403;DHT22;10862;51.886;17.078;2023-03-01T17:23:28;3.40;1.00
21403;DHT22;10862;51.886;17.078;2023-03-01T17:25:54;3.30;1.00
21403;DHT22;10862;51.886;17.078;2023-03-01T17:28:22;3.10;1.00
21403;DHT22;10862;51.886;17.078;2023-03-01T17:30:48;2.90;1.00
21403;DHT22;10862;51.886;17.078;2023-03-01T17:33:14;2.80;1.00
21403;DHT22;10862;51.886;17.078;2023-03-01T17:35:40;2.70;1.00
21403;DHT22;10862;51.886;17.078;2023-03-01T17:38:06;2.70;1.00
21403;DHT22;10862;51.886;17.078;2023-03-01T17:40:32;2.80;1.00
21403;DHT22;10862;51.886;17.078;2023-03-01T17:43:00;2.70;1.00
21403;DHT22;10862;51.886;17.078;2023-03-01T17:45:27;2.60;1.00
21403;DHT22;10862;51.886;17.078;2023-03-01T17:47:52;2.60;1.00
21403;DHT22;10862;51.886;17.078;2023-03-01T17:50:18;2.70;1.00
21403;DHT22;10862;51.886;17.078;2023-03-01T17:52:44;2.70;1.00
21403;DHT22;10862;51.886;17.078;2023-03-01T17:55:10;2.60;1.00
21403;DHT22;10862;51.886;17.078;2023-03-01T17:57:39;2.50;1.00